createdAt,value
2022-08-03T00:07:00.903Z,20.33
2022-08-03T00:10:11.546Z,20.27
2022-08-03T00:13:24.578Z,18.45
2022-08-03T00:16:34.100Z,21.35
2022-08-03T00:19:28.372Z,19.40
2022-08-03T00:22:05.958Z,19.70
2022-08-03T00:24:54.658Z,20.65
2022-08-03T00:27:25.619Z,19.85
2022-08-03T00:30:00.294Z,20.67
2022-08-03T00:32:44.972Z,21.73
2022-08-03T00:35:50.677Z,22.85
2022-08-03T00:38:46.726Z,22.10
2022-08-03T00:42:30.330Z,23.98
2022-08-03T00:45:36.870Z,23.63
2022-08-03T00:48:36.347Z,24.88
2022-08-03T00:51:04.780Z,24.80
2022-08-03T00:53:32.992Z,24.60
2022-08-03T00:56:03.317Z,24.63
2022-08-03T00:58:31.398Z,26.23
2022-08-03T01:01:07.471Z,25.60
2022-08-03T01:03:35.670Z,24.20
2022-08-03T01:06:18.919Z,28.42
2022-08-03T01:08:57.745Z,30.85
2022-08-03T01:12:00.968Z,32.78
2022-08-03T01:14:56.077Z,34.33
2022-08-03T01:17:34.612Z,34.50
2022-08-03T01:20:14.833Z,34.15
2022-08-03T01:23:01.242Z,34.13
2022-08-03T01:25:54.266Z,35.22
2022-08-03T01:28:48.321Z,33.47
2022-08-03T01:31:21.541Z,30.83
2022-08-03T01:33:57.303Z,30.85
2022-08-03T01:36:30.364Z,30.83
2022-08-03T01:39:09.809Z,31.33
2022-08-03T01:41:44.781Z,32.22
2022-08-03T01:44:29.358Z,32.85
2022-08-03T01:47:00.733Z,32.65
2022-08-03T01:49:32.503Z,32.45
2022-08-03T01:52:05.521Z,33.00
2022-08-03T01:54:40.906Z,32.97
2022-08-03T01:57:10.095Z,32.53
2022-08-03T01:59:42.502Z,31.60
2022-08-03T02:02:33.123Z,31.52
2022-08-03T02:05:10.743Z,31.75
2022-08-03T02:07:42.164Z,31.90
2022-08-03T02:10:12.084Z,30.23
2022-08-03T02:12:46.111Z,32.80
2022-08-03T02:15:16.357Z,30.50
2022-08-03T02:17:47.473Z,31.33
2022-08-03T02:22:46.732Z,32.97
2022-08-03T02:25:17.341Z,31.17
2022-08-03T02:27:55.349Z,31.98
2022-08-03T02:30:31.335Z,31.17
2022-08-03T02:33:01.568Z,31.90
2022-08-03T02:35:36.105Z,29.37
2022-08-03T02:38:11.935Z,27.88
2022-08-03T02:40:43.563Z,27.50
2022-08-03T02:43:17.427Z,41.63
2022-08-03T02:45:49.526Z,35.28
2022-08-03T02:48:23.746Z,28.95
2022-08-03T02:50:54.263Z,36.05
2022-08-03T02:53:24.127Z,28.60
2022-08-03T02:55:54.141Z,33.40
2022-08-03T02:58:24.978Z,25.52
2022-08-03T03:00:54.413Z,27.20
2022-08-03T03:03:23.502Z,30.10
2022-08-03T03:05:57.754Z,28.55
2022-08-03T03:08:28.381Z,27.25
2022-08-03T03:11:02.288Z,27.15
2022-08-03T03:13:32.038Z,27.40
2022-08-03T03:16:05.098Z,27.40
2022-08-03T03:18:34.749Z,25.30
2022-08-03T03:21:05.105Z,27.10
2022-08-03T03:23:37.594Z,25.50
2022-08-03T03:26:07.587Z,25.60
2022-08-03T03:28:42.687Z,27.30
2022-08-03T03:31:11.781Z,26.80
2022-08-03T03:33:39.887Z,24.70
2022-08-03T03:36:11.143Z,26.17
2022-08-03T03:38:41.757Z,26.95
2022-08-03T03:41:10.494Z,27.88
2022-08-03T03:43:38.314Z,27.15
2022-08-03T03:46:06.688Z,25.70
2022-08-03T03:48:34.593Z,25.67
2022-08-03T03:51:04.770Z,26.50
2022-08-03T03:53:32.595Z,23.77
2022-08-03T03:56:04.167Z,24.70
2022-08-03T03:58:33.152Z,24.70
2022-08-03T04:01:04.668Z,25.67
2022-08-03T04:03:33.585Z,25.77
2022-08-03T04:06:21.102Z,26.73
2022-08-03T04:09:07.832Z,24.77
2022-08-03T04:11:40.804Z,23.65
2022-08-03T04:14:13.686Z,22.92
2022-08-03T04:16:51.725Z,26.35
2022-08-03T04:19:45.289Z,22.52
2022-08-03T04:22:53.858Z,24.27
2022-08-03T04:25:29.341Z,29.50
2022-08-03T04:28:30.451Z,26.95
2022-08-03T04:31:01.458Z,28.50
2022-08-03T04:33:32.729Z,25.08
2022-08-03T04:36:03.732Z,25.40
2022-08-03T04:38:36.924Z,24.50
2022-08-03T04:41:05.256Z,24.73
2022-08-03T04:43:34.410Z,24.77
2022-08-03T04:46:04.160Z,27.02
2022-08-03T04:48:33.108Z,25.85
2022-08-03T04:51:04.790Z,25.10
2022-08-03T04:53:33.914Z,26.48
2022-08-03T04:56:08.221Z,25.52
2022-08-03T04:58:36.256Z,25.52
2022-08-03T05:01:04.166Z,27.15
2022-08-03T05:03:38.319Z,27.15
2022-08-03T05:06:10.938Z,27.05
2022-08-03T05:09:49.900Z,26.40
2022-08-03T05:12:19.749Z,26.98
2022-08-03T05:14:47.760Z,27.00
2022-08-03T05:17:15.688Z,29.60
2022-08-03T05:19:45.776Z,33.45
2022-08-03T05:22:14.238Z,28.97
2022-08-03T05:24:45.082Z,28.27
2022-08-03T05:27:19.320Z,28.58
2022-08-03T05:29:51.072Z,30.20
2022-08-03T05:32:19.641Z,30.77
2022-08-03T05:34:48.776Z,28.48
2022-08-03T05:37:16.619Z,29.55
2022-08-03T05:39:44.410Z,29.20
2022-08-03T05:42:15.313Z,30.42
2022-08-03T05:44:43.736Z,31.40
2022-08-03T05:47:11.781Z,32.97
2022-08-03T05:49:40.569Z,30.25
2022-08-03T05:52:12.653Z,30.63
2022-08-03T05:54:56.097Z,32.25
2022-08-03T05:57:26.859Z,31.95
2022-08-03T05:59:58.431Z,29.95
2022-08-03T06:02:27.832Z,29.35
2022-08-03T06:04:55.616Z,29.80
2022-08-03T06:07:23.510Z,30.45
2022-08-03T06:10:35.007Z,29.08
2022-08-03T06:12:41.411Z,31.00
2022-08-03T06:15:11.428Z,31.13
2022-08-03T06:17:49.649Z,30.25
2022-08-03T06:20:19.830Z,28.00
2022-08-03T06:22:51.042Z,28.10
2022-08-03T06:25:21.219Z,29.30
2022-08-03T06:27:49.623Z,30.10
2022-08-03T06:30:21.001Z,33.03
2022-08-03T06:32:51.651Z,30.33
2022-08-03T06:37:50.624Z,29.65
2022-08-03T06:40:21.607Z,29.60
2022-08-03T06:42:49.830Z,28.98
2022-08-03T06:45:18.741Z,30.13
2022-08-03T06:47:46.572Z,32.15
2022-08-03T06:50:16.886Z,31.98
2022-08-03T06:52:46.392Z,29.58
2022-08-03T06:55:14.303Z,31.80
2022-08-03T06:57:42.562Z,32.45
2022-08-03T07:00:12.851Z,31.20
2022-08-03T07:02:41.340Z,31.55
2022-08-03T07:05:10.658Z,33.03
2022-08-03T07:07:38.998Z,32.58
2022-08-03T07:10:08.109Z,30.70
2022-08-03T07:12:38.951Z,28.38
2022-08-03T07:15:55.509Z,30.73
2022-08-03T07:18:27.555Z,30.70
2022-08-03T07:21:02.792Z,32.08
2022-08-03T07:23:31.266Z,34.22
2022-08-03T07:25:59.214Z,29.33
2022-08-03T07:28:27.388Z,29.55
2022-08-03T07:30:59.577Z,27.40
2022-08-03T07:33:27.836Z,28.70
2022-08-03T07:36:04.584Z,30.10
2022-08-03T07:38:32.623Z,31.20
2022-08-03T07:41:00.583Z,28.52
2022-08-03T07:43:32.743Z,29.08
2022-08-03T07:46:00.796Z,29.15
2022-08-03T07:48:28.766Z,28.50
2022-08-03T07:50:56.892Z,27.77
2022-08-03T07:53:25.253Z,27.58
2022-08-03T07:56:18.110Z,27.60
2022-08-03T07:58:46.447Z,27.35
2022-08-03T08:01:18.587Z,26.60
2022-08-03T08:03:53.250Z,26.20
2022-08-03T08:06:25.681Z,27.08
2022-08-03T08:08:55.436Z,25.45
2022-08-03T08:11:26.544Z,25.48
2022-08-03T08:13:56.447Z,24.05
2022-08-03T08:16:28.020Z,25.80
2022-08-03T08:18:59.725Z,24.15
2022-08-03T08:22:01.922Z,23.70
2022-08-03T08:24:41.109Z,22.65
2022-08-03T08:27:12.672Z,22.70
2022-08-03T08:29:47.565Z,20.02
2022-08-03T08:32:22.191Z,17.45
2022-08-03T08:34:50.961Z,18.92
2022-08-03T08:37:19.005Z,18.25
2022-08-03T08:39:46.801Z,15.38
2022-08-03T08:42:17.937Z,15.63
2022-08-03T08:44:46.826Z,36.78
2022-08-03T08:47:19.356Z,16.75
2022-08-03T08:50:08.955Z,15.98
2022-08-03T08:53:04.106Z,15.38
2022-08-03T08:55:58.378Z,11.10
2022-08-03T08:58:23.667Z,13.10
2022-08-03T09:00:52.134Z,11.23
2022-08-03T09:03:29.258Z,10.45
2022-08-03T09:06:03.823Z,9.95
2022-08-03T09:08:35.153Z,9.23
2022-08-03T09:11:08.678Z,10.77
2022-08-03T09:13:40.795Z,10.65
2022-08-03T09:16:18.998Z,11.23
2022-08-03T09:18:50.711Z,11.27
2022-08-03T09:21:34.223Z,10.57
2022-08-03T09:24:13.000Z,11.20
2022-08-03T09:26:57.379Z,13.90
2022-08-03T09:29:42.795Z,13.50
2022-08-03T09:32:38.668Z,12.48
2022-08-03T09:38:28.892Z,11.82
2022-08-03T09:41:00.308Z,10.52
2022-08-03T09:43:30.062Z,13.15
2022-08-03T09:46:09.534Z,10.45
2022-08-03T09:48:37.647Z,9.88
2022-08-03T09:51:13.152Z,11.60
2022-08-03T09:54:16.334Z,11.38
2022-08-03T09:56:47.880Z,9.20
2022-08-03T09:59:25.154Z,8.55
2022-08-03T10:01:55.962Z,9.75
2022-08-03T10:04:24.541Z,10.93
2022-08-03T10:07:23.473Z,9.98
2022-08-03T10:09:58.157Z,9.90
2022-08-03T10:12:48.537Z,10.32
2022-08-03T10:16:22.239Z,9.55
2022-08-03T10:18:05.482Z,9.77
2022-08-03T10:20:40.359Z,10.80
2022-08-03T10:23:11.796Z,9.43
2022-08-03T10:25:45.286Z,9.07
2022-08-03T10:28:18.217Z,9.45
2022-08-03T10:31:21.128Z,9.35
2022-08-03T10:33:58.842Z,10.23
2022-08-03T10:36:32.583Z,9.23
2022-08-03T10:39:15.943Z,9.32
2022-08-03T10:41:50.846Z,9.65
2022-08-03T10:47:16.303Z,10.93
2022-08-03T10:49:48.009Z,10.00
2022-08-03T10:52:31.944Z,10.30
2022-08-03T10:55:21.390Z,9.65
2022-08-03T10:57:58.884Z,9.15
2022-08-03T11:00:30.530Z,9.02
2022-08-03T11:03:05.003Z,9.52
2022-08-03T11:05:39.034Z,8.07
2022-08-03T11:08:39.555Z,8.35
2022-08-03T11:11:24.276Z,9.90
2022-08-03T11:14:22.278Z,7.25
2022-08-03T11:16:53.636Z,7.65
2022-08-03T11:19:28.425Z,7.95
2022-08-03T11:21:58.724Z,7.80
2022-08-03T11:24:54.483Z,8.38
2022-08-03T11:27:32.807Z,7.35
2022-08-03T11:30:27.663Z,7.45
2022-08-03T11:32:59.828Z,7.32
2022-08-03T11:35:36.708Z,8.18
2022-08-03T11:38:07.563Z,6.78
2022-08-03T11:40:39.173Z,8.55
2022-08-03T11:47:55.831Z,19.55
2022-08-03T11:50:24.780Z,9.50
2022-08-03T11:52:55.930Z,65.68
2022-08-03T11:55:36.408Z,43.50
2022-08-03T11:59:16.631Z,32.25
2022-08-03T12:00:53.395Z,9.60
2022-08-03T12:03:21.517Z,16.38
2022-08-03T12:05:56.490Z,15.18
2022-08-03T12:08:26.624Z,10.00
2022-08-03T12:11:00.162Z,21.05
2022-08-03T12:14:45.593Z,11.77
2022-08-03T12:16:35.308Z,17.45
2022-08-03T12:19:07.131Z,14.68
2022-08-03T12:21:35.133Z,14.02
2022-08-03T12:24:07.859Z,13.50
2022-08-03T12:26:56.819Z,22.25
2022-08-03T12:29:30.623Z,15.75
2022-08-03T12:31:59.286Z,12.35
2022-08-03T12:34:43.021Z,25.55
2022-08-03T12:37:28.676Z,9.40
2022-08-03T12:40:09.522Z,12.20
2022-08-03T12:42:56.595Z,9.40
2022-08-03T12:45:27.155Z,12.57
2022-08-03T12:48:08.549Z,16.38
2022-08-03T12:50:53.666Z,8.38
2022-08-03T12:53:30.475Z,8.40
2022-08-03T12:56:05.625Z,17.42
2022-08-03T12:58:36.998Z,12.90
2022-08-03T13:01:09.878Z,8.55
2022-08-03T13:03:57.566Z,8.30
2022-08-03T13:06:30.117Z,8.25
2022-08-03T13:09:08.521Z,7.88
2022-08-03T13:12:08.239Z,7.43
2022-08-03T13:14:37.408Z,8.17
2022-08-03T13:17:08.909Z,14.52
2022-08-03T13:19:38.289Z,13.80
2022-08-03T13:22:23.739Z,8.98
2022-08-03T13:35:22.940Z,9.02
2022-08-03T13:38:32.243Z,21.17
2022-08-03T13:41:19.315Z,24.70
2022-08-03T13:44:29.106Z,11.10
2022-08-03T13:47:02.256Z,8.30
2022-08-03T13:49:40.452Z,8.88
2022-08-03T13:52:09.133Z,8.05
2022-08-03T13:54:37.388Z,8.70
2022-08-03T13:58:11.429Z,9.68
2022-08-03T14:00:29.695Z,10.23
2022-08-03T14:03:14.919Z,8.30
2022-08-03T14:05:44.545Z,9.27
2022-08-03T14:08:37.388Z,12.10
2022-08-03T14:11:06.759Z,12.68
2022-08-03T14:13:34.872Z,11.02
2022-08-03T14:16:53.241Z,16.25
2022-08-03T14:19:25.025Z,9.13
2022-08-03T14:22:06.453Z,10.20
2022-08-03T14:24:35.939Z,12.10
2022-08-03T14:27:08.827Z,11.93
2022-08-03T14:29:40.867Z,11.90
2022-08-03T14:32:10.025Z,9.75
2022-08-03T14:35:05.945Z,14.18
2022-08-03T14:37:38.665Z,11.48
2022-08-03T14:40:11.647Z,9.85
2022-08-03T14:42:39.870Z,10.13
2022-08-03T14:45:19.720Z,9.50
2022-08-03T14:50:10.471Z,8.77
2022-08-03T14:50:43.146Z,8.77
2022-08-03T14:53:17.765Z,7.43
2022-08-03T14:55:50.660Z,7.20
2022-08-03T14:58:23.635Z,7.72
2022-08-03T15:00:53.217Z,7.90
2022-08-03T15:03:25.763Z,7.87
2022-08-03T15:05:57.693Z,7.45
2022-08-03T15:08:26.423Z,9.02
2022-08-03T15:10:54.975Z,9.18
2022-08-03T15:13:23.003Z,9.48
2022-08-03T15:15:51.943Z,9.68
2022-08-03T15:18:23.892Z,9.60
2022-08-03T15:20:51.940Z,9.32
2022-08-03T15:23:20.048Z,10.40
2022-08-03T15:26:03.845Z,8.20
2022-08-03T15:28:37.398Z,9.25
2022-08-03T15:31:06.720Z,9.27
2022-08-03T15:33:35.252Z,9.57
2022-08-03T15:36:04.407Z,8.70
2022-08-03T15:38:32.339Z,9.23
2022-08-03T15:41:00.429Z,9.15
2022-08-03T15:43:28.347Z,9.70
2022-08-03T15:47:11.106Z,9.93
2022-08-03T15:49:42.431Z,9.15
2022-08-03T15:52:10.528Z,9.40
2022-08-03T15:55:03.770Z,9.48
2022-08-03T15:57:31.829Z,10.30
2022-08-03T15:59:59.765Z,8.88
2022-08-03T16:02:27.749Z,8.60
2022-08-03T16:04:55.648Z,9.10
2022-08-03T16:07:42.016Z,8.82
2022-08-03T16:10:34.704Z,8.10
2022-08-03T16:13:02.946Z,9.23
2022-08-03T16:15:30.757Z,8.63
2022-08-03T16:17:58.766Z,8.40
2022-08-03T16:20:31.496Z,8.45
2022-08-03T16:23:10.416Z,8.65
2022-08-03T16:25:40.777Z,10.93
2022-08-03T16:28:13.737Z,10.80
2022-08-03T16:30:44.235Z,10.27
2022-08-03T16:33:17.279Z,10.95
2022-08-03T16:35:47.100Z,12.02
2022-08-03T16:38:40.488Z,9.60
2022-08-03T16:41:09.656Z,8.68
2022-08-03T16:43:37.950Z,8.90
2022-08-03T16:46:07.561Z,8.65
2022-08-03T16:48:35.752Z,8.93
2022-08-03T16:51:03.762Z,9.05
2022-08-03T16:53:51.632Z,8.43
2022-08-03T16:56:54.420Z,9.70
2022-08-03T16:59:36.156Z,9.25
2022-08-03T17:02:10.117Z,10.88
2022-08-03T17:04:40.330Z,9.30
2022-08-03T17:07:18.679Z,9.70
2022-08-03T17:09:48.169Z,10.57
2022-08-03T17:12:17.529Z,9.13
2022-08-03T17:14:46.349Z,9.10
2022-08-03T17:17:24.845Z,9.98
2022-08-03T17:19:54.289Z,9.10
2022-08-03T17:22:31.291Z,9.13
2022-08-03T17:25:07.948Z,8.70
2022-08-03T17:28:49.398Z,9.35
2022-08-03T17:30:46.119Z,8.43
2022-08-03T17:33:20.621Z,8.43
2022-08-03T17:35:53.019Z,8.73
2022-08-03T17:38:25.238Z,9.75
2022-08-03T17:41:00.358Z,12.23
2022-08-03T17:44:14.378Z,12.23
2022-08-03T17:46:29.422Z,11.05
2022-08-03T17:48:59.654Z,10.05
2022-08-03T17:51:36.661Z,9.23
2022-08-03T17:55:56.041Z,10.10
2022-08-03T17:58:02.218Z,12.68
2022-08-03T18:00:52.319Z,11.98
2022-08-03T18:03:57.841Z,11.63
2022-08-03T18:06:39.206Z,10.40
2022-08-03T18:10:05.926Z,10.00
2022-08-03T18:15:08.494Z,11.50
2022-08-03T18:17:55.887Z,11.57
2022-08-03T18:20:42.397Z,12.02
2022-08-03T18:23:24.625Z,13.50
2022-08-03T18:26:12.050Z,12.60
2022-08-03T18:28:40.835Z,10.40
2022-08-03T18:31:32.938Z,10.98
2022-08-03T18:34:20.038Z,12.90
2022-08-03T18:36:55.977Z,13.50
2022-08-03T18:39:24.048Z,14.07
2022-08-03T18:41:52.666Z,12.88
2022-08-03T18:44:46.437Z,12.18
2022-08-03T18:47:51.003Z,13.13
2022-08-03T18:50:35.721Z,12.00
2022-08-03T18:53:21.091Z,12.02
2022-08-03T18:56:04.913Z,15.32
2022-08-03T18:58:41.733Z,15.80
2022-08-03T19:04:31.597Z,13.88
2022-08-03T19:07:07.867Z,15.10
2022-08-03T19:09:56.570Z,14.25
2022-08-03T19:12:37.857Z,17.33
2022-08-03T19:15:12.667Z,18.48
2022-08-03T19:17:53.164Z,20.55
2022-08-03T19:20:24.967Z,19.05
2022-08-03T19:22:57.201Z,16.90
2022-08-03T19:25:35.108Z,17.00
2022-08-03T19:28:06.212Z,18.20
2022-08-03T19:30:39.083Z,17.73
2022-08-03T19:33:09.716Z,15.23
2022-08-03T19:35:55.022Z,15.52
2022-08-03T19:38:29.048Z,16.65
2022-08-03T19:41:04.234Z,15.35
2022-08-03T19:43:49.507Z,17.13
2022-08-03T19:46:30.721Z,15.48
2022-08-03T19:49:10.561Z,16.23
2022-08-03T19:54:54.029Z,19.25
2022-08-03T19:57:27.372Z,22.10
2022-08-03T20:00:03.326Z,19.02
2022-08-03T20:02:36.691Z,19.52
2022-08-03T20:05:05.966Z,18.60
2022-08-03T20:07:49.023Z,21.42
2022-08-03T20:10:18.150Z,19.27
2022-08-03T20:15:53.326Z,20.75
2022-08-03T20:18:22.181Z,20.63
2022-08-03T20:20:52.469Z,23.92
2022-08-03T20:26:00.382Z,19.58
2022-08-03T20:31:23.945Z,20.40
2022-08-03T20:33:59.828Z,21.67
2022-08-03T20:36:27.909Z,21.55
2022-08-03T20:38:57.979Z,20.98
2022-08-03T20:41:26.253Z,22.98
2022-08-03T20:43:57.483Z,21.45
2022-08-03T20:46:31.916Z,21.85
2022-08-03T20:49:05.648Z,23.00
2022-08-03T20:51:49.647Z,21.60
2022-08-03T20:54:29.235Z,19.75
2022-08-03T20:57:03.781Z,21.17
2022-08-03T20:59:50.534Z,21.33
2022-08-03T21:02:29.732Z,21.02
2022-08-03T21:05:12.552Z,20.35
2022-08-03T21:08:04.804Z,22.95
2022-08-03T21:10:35.813Z,20.35
2022-08-03T21:13:09.823Z,16.65
2022-08-03T21:13:09.931Z,12.77
2022-08-03T21:13:18.567Z,19.02
2022-08-03T21:16:02.560Z,18.10
2022-08-03T21:18:44.598Z,18.70
2022-08-03T21:21:16.599Z,19.30
2022-08-03T21:23:49.620Z,18.25
2022-08-03T21:26:19.944Z,16.90
2022-08-03T21:28:53.019Z,17.70
2022-08-03T21:31:25.472Z,18.52
2022-08-03T21:33:56.074Z,18.65
2022-08-03T21:36:26.864Z,19.55
2022-08-03T21:38:57.004Z,17.60
2022-08-03T21:41:30.691Z,19.40
2022-08-03T21:43:59.190Z,17.13
2022-08-03T21:46:36.800Z,17.98
2022-08-03T21:50:05.806Z,18.77
2022-08-03T21:51:59.805Z,19.27
2022-08-03T21:54:41.570Z,18.33
2022-08-03T21:57:17.759Z,18.05
2022-08-03T21:59:54.264Z,18.35
2022-08-03T22:02:31.332Z,19.98
2022-08-03T22:05:00.058Z,18.90
2022-08-03T22:07:29.497Z,18.20
2022-08-03T22:09:59.711Z,19.58
2022-08-03T22:12:30.841Z,19.27
2022-08-03T22:15:02.108Z,17.50
2022-08-03T22:17:55.105Z,17.55
2022-08-03T22:20:22.290Z,17.33
2022-08-03T22:22:56.088Z,16.75
2022-08-03T22:25:31.349Z,16.63
2022-08-03T22:28:06.888Z,16.98
2022-08-03T22:30:35.293Z,16.48
2022-08-03T22:33:05.370Z,17.15
2022-08-03T22:35:46.446Z,16.15
2022-08-03T22:38:18.323Z,15.25
2022-08-03T22:40:50.025Z,15.30
2022-08-03T22:43:21.758Z,15.82
2022-08-03T22:46:08.999Z,14.93
2022-08-03T22:48:41.306Z,14.35
2022-08-03T22:51:10.386Z,14.93
2022-08-03T22:53:39.305Z,15.98
2022-08-03T22:56:07.129Z,14.73
2022-08-03T22:58:34.927Z,14.38
2022-08-03T23:01:06.493Z,15.25
2022-08-03T23:04:00.228Z,15.07
2022-08-03T23:06:35.087Z,14.68
2022-08-03T23:09:09.409Z,15.38
2022-08-03T23:11:45.504Z,15.32
2022-08-03T23:14:16.438Z,15.05
2022-08-03T23:16:45.824Z,14.70
2022-08-03T23:19:25.309Z,13.98
2022-08-03T23:22:03.279Z,15.00
2022-08-03T23:24:39.290Z,15.20
2022-08-03T23:27:08.925Z,15.30
2022-08-03T23:29:38.257Z,14.75
2022-08-03T23:32:07.049Z,15.60
2022-08-03T23:34:57.264Z,15.45
2022-08-03T23:37:26.263Z,15.43
2022-08-03T23:39:57.074Z,13.95
2022-08-03T23:42:26.414Z,15.57
2022-08-03T23:44:59.487Z,15.63
2022-08-03T23:47:45.946Z,15.55
2022-08-03T23:50:17.535Z,16.13
2022-08-03T23:52:58.210Z,15.63
2022-08-03T23:55:26.059Z,15.80
2022-08-03T23:58:18.206Z,16.15
